createdAt,value
2023-02-05T00:01:43.663Z,96715.66
2023-02-05T00:04:12.622Z,96707.59
2023-02-05T00:06:40.328Z,96709.69
2023-02-05T00:09:08.059Z,96708.44
2023-02-05T00:11:35.694Z,96700.78
2023-02-05T00:14:03.356Z,96703.59
2023-02-05T00:16:31.194Z,96695.19
2023-02-05T00:18:58.883Z,96695.03
2023-02-05T00:21:28.150Z,96688.56
2023-02-05T00:23:55.774Z,96688.28
2023-02-05T00:26:23.414Z,96684.66
2023-02-05T00:28:51.037Z,96682.25
2023-02-05T00:31:21.109Z,96677.03
2023-02-05T00:33:49.946Z,96674.22
2023-02-05T00:36:18.260Z,96670.53
2023-02-05T00:38:47.663Z,96675.25
2023-02-05T00:41:16.117Z,96678.59
2023-02-05T00:43:44.066Z,96690.38
2023-02-05T00:46:12.755Z,96689.19
2023-02-05T00:48:40.921Z,96688.09
2023-02-05T00:51:08.720Z,96683.31
2023-02-05T00:53:36.367Z,96693.97
2023-02-05T00:56:05.823Z,96690.00
2023-02-05T00:58:33.656Z,96694.09
2023-02-05T01:01:01.499Z,96694.81
2023-02-05T01:03:29.299Z,96693.97
2023-02-05T01:05:57.061Z,96701.84
2023-02-05T01:08:24.969Z,96703.56
2023-02-05T01:10:52.630Z,96703.28
2023-02-05T01:13:21.623Z,96696.25
2023-02-05T01:15:49.342Z,96686.38
2023-02-05T01:18:17.118Z,96685.56
2023-02-05T01:20:45.216Z,96685.56
2023-02-05T01:23:13.135Z,96681.97
2023-02-05T01:25:40.849Z,96672.47
2023-02-05T01:28:08.479Z,96681.84
2023-02-05T01:30:37.615Z,96667.78
2023-02-05T01:33:05.878Z,96666.63
2023-02-05T01:35:33.769Z,96674.19
2023-02-05T01:38:01.618Z,96669.81
2023-02-05T01:40:29.249Z,96667.38
2023-02-05T01:42:56.915Z,96660.63
2023-02-05T01:45:50.889Z,96671.78
2023-02-05T01:48:22.438Z,96674.31
2023-02-05T01:50:52.895Z,96677.25
2023-02-05T01:53:23.196Z,96677.03
2023-02-05T01:55:53.454Z,96675.00
2023-02-05T01:58:24.246Z,96668.56
2023-02-05T02:00:53.232Z,96676.72
2023-02-05T02:03:21.097Z,96676.56
2023-02-05T02:05:48.750Z,96674.03
2023-02-05T02:08:16.392Z,96672.19
2023-02-05T02:10:44.704Z,96667.00
2023-02-05T02:13:13.764Z,96657.00
2023-02-05T02:15:41.504Z,96660.44
2023-02-05T02:18:28.732Z,96659.19
2023-02-05T02:21:20.996Z,96660.63
2023-02-05T02:23:53.966Z,96660.34
2023-02-05T02:26:33.521Z,96649.31
2023-02-05T02:29:03.857Z,96655.78
2023-02-05T02:31:33.504Z,96644.16
2023-02-05T02:34:03.304Z,96651.16
2023-02-05T02:36:33.873Z,96646.53
2023-02-05T02:39:04.764Z,96646.06
2023-02-05T02:41:37.298Z,96638.47
2023-02-05T02:44:08.592Z,96637.84
2023-02-05T02:46:40.282Z,96631.94
2023-02-05T02:49:10.806Z,96631.81
2023-02-05T02:51:39.706Z,96630.59
2023-02-05T02:54:09.511Z,96633.97
2023-02-05T02:56:38.705Z,96637.84
2023-02-05T02:59:10.131Z,96632.81
2023-02-05T03:01:42.585Z,96629.94
2023-02-05T03:04:13.235Z,96625.31
2023-02-05T03:06:43.448Z,96638.97
2023-02-05T03:09:13.531Z,96634.47
2023-02-05T03:11:41.329Z,96628.31
2023-02-05T03:14:10.377Z,96619.72
2023-02-05T03:16:38.154Z,96613.50
2023-02-05T03:19:06.377Z,96607.31
2023-02-05T03:21:38.080Z,96616.44
2023-02-05T03:24:06.338Z,96612.91
2023-02-05T03:26:35.989Z,96607.81
2023-02-05T03:29:07.724Z,96600.03
2023-02-05T03:31:43.915Z,96594.88
2023-02-05T03:34:21.068Z,96591.34
2023-02-05T03:36:56.777Z,96587.81
2023-02-05T03:39:30.676Z,96594.16
2023-02-05T03:42:11.122Z,96585.56
2023-02-05T03:45:27.247Z,96592.44
2023-02-05T03:48:10.764Z,96578.84
2023-02-05T03:50:41.459Z,96581.56
2023-02-05T03:53:15.360Z,96583.19
2023-02-05T03:55:46.750Z,96592.88
2023-02-05T03:58:16.736Z,96602.31
2023-02-05T04:00:44.633Z,96602.22
2023-02-05T04:03:13.751Z,96597.16
2023-02-05T04:05:41.372Z,96598.00
2023-02-05T04:08:09.075Z,96590.13
2023-02-05T04:10:36.704Z,96585.75
2023-02-05T04:13:04.477Z,96590.13
2023-02-05T04:15:32.402Z,96592.44
2023-02-05T04:18:00.182Z,96584.28
2023-02-05T04:20:29.224Z,96588.50
2023-02-05T04:22:56.886Z,96580.88
2023-02-05T04:25:24.533Z,96591.56
2023-02-05T04:27:52.269Z,96584.56
2023-02-05T04:30:20.179Z,96583.22
2023-02-05T04:32:47.813Z,96581.66
2023-02-05T04:35:15.447Z,96569.28
2023-02-05T04:37:44.402Z,96571.97
2023-02-05T04:40:12.585Z,96572.84
2023-02-05T04:42:40.156Z,96565.69
2023-02-05T04:45:08.607Z,96563.28
2023-02-05T04:47:36.574Z,96561.31
2023-02-05T04:50:04.486Z,96561.56
2023-02-05T04:52:32.097Z,96558.31
2023-02-05T04:55:01.069Z,96560.38
2023-02-05T04:57:28.776Z,96562.47
2023-02-05T04:59:56.391Z,96562.59
2023-02-05T05:02:24.426Z,96564.53
2023-02-05T05:04:52.082Z,96567.56
2023-02-05T05:07:19.692Z,96562.47
2023-02-05T05:09:47.329Z,96559.81
2023-02-05T05:12:16.268Z,96558.16
2023-02-05T05:14:44.009Z,96552.69
2023-02-05T05:17:13.266Z,96553.66
2023-02-05T05:19:40.895Z,96557.69
2023-02-05T05:22:08.521Z,96553.19
2023-02-05T05:24:36.132Z,96553.91
2023-02-05T05:27:03.693Z,96556.69
2023-02-05T05:29:32.704Z,96556.22
2023-02-05T05:32:00.385Z,96557.31
2023-02-05T05:34:28.101Z,96551.38
2023-02-05T05:36:55.677Z,96550.53
2023-02-05T05:39:41.012Z,96543.78
2023-02-05T05:42:26.387Z,96549.69
2023-02-05T05:44:55.346Z,96554.91
2023-02-05T05:47:23.024Z,96564.56
2023-02-05T05:49:50.628Z,96567.25
2023-02-05T05:52:18.334Z,96569.91
2023-02-05T05:54:46.852Z,96560.34
2023-02-05T05:57:14.454Z,96547.16
2023-02-05T05:59:42.111Z,96544.47
2023-02-05T06:02:11.189Z,96551.00
2023-02-05T06:04:38.887Z,96554.91
2023-02-05T06:07:06.685Z,96549.81
2023-02-05T06:09:34.360Z,96549.94
2023-02-05T06:12:02.050Z,96556.97
2023-02-05T06:14:29.718Z,96558.78
2023-02-05T06:16:57.357Z,96550.78
2023-02-05T06:19:26.367Z,96547.28
2023-02-05T06:21:54.016Z,96560.59
2023-02-05T06:24:21.679Z,96550.78
2023-02-05T06:26:49.315Z,96565.09
2023-02-05T06:29:16.933Z,96568.84
2023-02-05T06:31:44.684Z,96575.88
2023-02-05T06:34:12.428Z,96574.78
2023-02-05T06:36:41.390Z,96581.09
2023-02-05T06:39:09.071Z,96592.47
2023-02-05T06:41:36.670Z,96597.56
2023-02-05T06:44:05.185Z,96593.31
2023-02-05T06:46:32.871Z,96587.38
2023-02-05T06:49:04.404Z,96591.75
2023-02-05T06:51:32.104Z,96585.81
2023-02-05T06:54:02.472Z,96584.09
2023-02-05T06:56:30.116Z,96585.94
2023-02-05T06:58:57.785Z,96586.78
2023-02-05T07:01:25.403Z,96606.38
2023-02-05T07:03:56.164Z,96598.28
2023-02-05T07:06:24.483Z,96599.97
2023-02-05T07:08:52.196Z,96597.06
2023-02-05T07:11:21.555Z,96605.19
2023-02-05T07:13:49.324Z,96607.00
2023-02-05T07:16:17.043Z,96604.34
2023-02-05T07:18:44.677Z,96599.75
2023-02-05T07:21:16.010Z,96590.50
2023-02-05T07:23:43.912Z,96584.94
2023-02-05T07:26:13.758Z,96586.53
2023-02-05T07:28:43.493Z,96586.88
2023-02-05T07:31:15.160Z,96581.03
2023-02-05T07:33:43.052Z,96584.94
2023-02-05T07:36:13.460Z,96581.03
2023-02-05T07:38:41.469Z,96584.16
2023-02-05T07:41:10.773Z,96603.06
2023-02-05T07:43:39.460Z,96599.44
2023-02-05T07:46:10.088Z,96602.56
2023-02-05T07:48:38.122Z,96596.47
2023-02-05T07:51:06.471Z,96596.56
2023-02-05T07:53:34.355Z,96598.34
2023-02-05T07:56:04.498Z,96594.19
2023-02-05T07:58:32.113Z,96595.63
2023-02-05T08:01:04.586Z,96602.16
2023-02-05T08:03:33.899Z,96594.34
2023-02-05T08:06:05.337Z,96589.94
2023-02-05T08:08:33.308Z,96593.88
2023-02-05T08:11:02.853Z,96608.28
2023-02-05T08:13:30.720Z,96610.91
2023-02-05T08:15:58.411Z,96610.13
2023-02-05T08:18:26.351Z,96606.38
2023-02-05T08:20:55.837Z,96614.34
2023-02-05T08:23:23.807Z,96602.00
2023-02-05T08:25:54.779Z,96596.69
2023-02-05T08:28:22.462Z,96598.84
2023-02-05T08:30:50.205Z,96586.34
2023-02-05T08:33:18.025Z,96583.28
2023-02-05T08:35:45.970Z,96590.19
2023-02-05T08:38:14.878Z,96590.81
2023-02-05T08:40:42.677Z,96588.41
2023-02-05T08:43:10.309Z,96577.88
2023-02-05T08:45:38.216Z,96579.28
2023-02-05T08:48:05.951Z,96571.97
2023-02-05T08:50:33.588Z,96572.00
2023-02-05T08:53:01.330Z,96570.00
2023-02-05T08:55:30.336Z,96561.56
2023-02-05T08:57:58.037Z,96547.56
2023-02-05T09:00:25.768Z,96554.47
2023-02-05T09:02:53.523Z,96547.81
2023-02-05T09:05:24.108Z,96532.41
2023-02-05T09:07:51.734Z,96546.94
2023-02-05T09:10:19.744Z,96533.72
2023-02-05T09:12:49.514Z,96531.53
2023-02-05T09:15:17.138Z,96521.88
2023-02-05T09:17:45.596Z,96522.53
2023-02-05T09:20:13.658Z,96517.94
2023-02-05T09:22:41.319Z,96518.72
2023-02-05T09:25:09.623Z,96521.19
2023-02-05T09:27:38.851Z,96525.94
2023-02-05T09:30:09.887Z,96512.59
2023-02-05T09:32:37.505Z,96521.88
2023-02-05T09:35:05.056Z,96513.75
2023-02-05T09:37:32.659Z,96511.53
2023-02-05T09:42:58.300Z,96512.50
2023-02-05T09:45:51.892Z,96504.38
2023-02-05T09:48:46.684Z,96499.38
2023-02-05T09:51:14.292Z,96501.59
2023-02-05T09:53:44.184Z,96497.69
2023-02-05T09:56:15.766Z,96496.25
2023-02-05T09:58:46.149Z,96497.50
2023-02-05T10:01:19.608Z,96485.13
2023-02-05T10:03:49.602Z,96476.13
2023-02-05T10:06:40.728Z,96478.13
2023-02-05T10:09:16.870Z,96463.91
2023-02-05T10:11:50.363Z,96461.56
2023-02-05T10:14:25.579Z,96450.78
2023-02-05T10:17:04.917Z,96451.91
2023-02-05T10:19:50.997Z,96445.06
2023-02-05T10:22:23.581Z,96439.91
2023-02-05T10:25:12.205Z,96430.78
2023-02-05T10:27:43.739Z,96437.50
2023-02-05T10:30:19.611Z,96432.31
2023-02-05T10:32:57.605Z,96423.41
2023-02-05T10:35:30.718Z,96420.34
2023-02-05T10:37:58.665Z,96416.69
2023-02-05T10:40:30.937Z,96409.44
2023-02-05T10:43:02.785Z,96414.69
2023-02-05T10:45:31.229Z,96403.13
2023-02-05T10:48:10.002Z,96406.31
2023-02-05T10:50:49.568Z,96409.19
2023-02-05T10:53:24.700Z,96396.38
2023-02-05T10:55:52.328Z,96394.84
2023-02-05T10:58:38.129Z,96391.28
2023-02-05T11:01:06.887Z,96382.16
2023-02-05T11:03:36.779Z,96374.91
2023-02-05T11:06:09.099Z,96386.06
2023-02-05T11:08:39.420Z,96379.63
2023-02-05T11:11:07.766Z,96391.38
2023-02-05T11:13:41.140Z,96376.09
2023-02-05T11:16:10.927Z,96376.25
2023-02-05T11:18:42.425Z,96372.34
2023-02-05T11:21:10.697Z,96368.50
2023-02-05T11:23:41.058Z,96373.53
2023-02-05T11:26:10.645Z,96372.84
2023-02-05T11:28:39.703Z,96374.53
2023-02-05T11:31:26.444Z,96369.97
2023-02-05T11:34:11.988Z,96366.44
2023-02-05T11:36:40.629Z,96368.59
2023-02-05T11:39:08.456Z,96368.09
2023-02-05T11:41:48.272Z,96369.41
2023-02-05T11:44:19.446Z,96376.69
2023-02-05T11:46:50.287Z,96376.84
2023-02-05T11:49:23.172Z,96374.81
2023-02-05T11:51:54.272Z,96376.50
2023-02-05T11:54:23.994Z,96375.19
2023-02-05T11:57:07.746Z,96376.56
2023-02-05T11:59:36.431Z,96379.91
2023-02-05T12:02:29.338Z,96378.09
2023-02-05T12:05:00.362Z,96381.63
2023-02-05T12:07:30.531Z,96373.38
2023-02-05T12:09:59.796Z,96376.91
2023-02-05T12:12:32.570Z,96374.38
2023-02-05T12:15:05.715Z,96379.41
2023-02-05T12:17:39.813Z,96376.75
2023-02-05T12:20:17.193Z,96369.28
2023-02-05T12:22:57.095Z,96374.84
2023-02-05T12:25:27.468Z,96368.81
2023-02-05T12:28:05.796Z,96370.88
2023-02-05T12:30:45.444Z,96367.41
2023-02-05T12:33:30.110Z,96370.25
2023-02-05T12:36:09.213Z,96359.31
2023-02-05T12:38:47.752Z,96364.03
2023-02-05T12:41:26.553Z,96367.72
2023-02-05T12:43:58.152Z,96360.81
2023-02-05T12:46:40.299Z,96360.84
2023-02-05T12:49:22.431Z,96363.16
2023-02-05T12:52:02.632Z,96371.78
2023-02-05T12:54:51.283Z,96368.41
2023-02-05T12:57:20.541Z,96364.22
2023-02-05T12:59:51.175Z,96363.53
2023-02-05T13:02:24.978Z,96365.53
2023-02-05T13:04:57.934Z,96364.03
2023-02-05T13:07:31.836Z,96365.22
2023-02-05T13:10:01.853Z,96369.94
2023-02-05T13:12:33.698Z,96371.28
2023-02-05T13:15:08.601Z,96362.19
2023-02-05T13:17:38.554Z,96361.84
2023-02-05T13:20:12.252Z,96364.03
2023-02-05T13:23:04.370Z,96355.44
2023-02-05T13:25:52.612Z,96345.00
2023-02-05T13:28:43.315Z,96348.72
2023-02-05T13:31:16.752Z,96347.00
2023-02-05T13:33:44.742Z,96340.09
2023-02-05T13:36:41.568Z,96330.13
2023-02-05T13:39:26.459Z,96325.41
2023-02-05T13:42:19.024Z,96327.72
2023-02-05T13:45:25.876Z,96321.31
2023-02-05T13:48:26.856Z,96318.22
2023-02-05T13:51:20.439Z,96312.69
2023-02-05T13:53:57.296Z,96307.75
2023-02-05T13:56:41.445Z,96307.50
2023-02-05T13:59:14.091Z,96303.13
2023-02-05T14:01:44.192Z,96306.28
2023-02-05T14:04:20.584Z,96303.97
2023-02-05T14:06:56.266Z,96311.88
2023-02-05T14:09:25.855Z,96311.34
2023-02-05T14:11:56.972Z,96305.63
2023-02-05T14:14:28.834Z,96300.56
2023-02-05T14:16:58.084Z,96298.53
2023-02-05T14:19:28.324Z,96301.03
2023-02-05T14:27:49.251Z,96293.00
2023-02-05T14:30:46.216Z,96282.97
2023-02-05T14:33:38.522Z,96277.75
2023-02-05T14:36:28.255Z,96288.34
2023-02-05T14:38:57.767Z,96279.94
2023-02-05T14:41:27.402Z,96279.16
2023-02-05T14:43:58.353Z,96278.50
2023-02-05T14:46:31.296Z,96273.50
2023-02-05T14:49:00.508Z,96272.31
2023-02-05T14:51:32.490Z,96273.19
2023-02-05T14:54:02.195Z,96272.16
2023-02-05T14:56:34.156Z,96269.31
2023-02-05T14:59:07.106Z,96272.50
2023-02-05T15:01:46.328Z,96278.59
2023-02-05T15:04:27.715Z,96284.63
2023-02-05T15:06:57.249Z,96286.28
2023-02-05T15:09:35.037Z,96278.94
2023-02-05T15:12:19.522Z,96288.50
2023-02-05T15:14:54.187Z,96288.69
2023-02-05T15:17:54.579Z,96289.19
2023-02-05T15:20:27.139Z,96286.16
2023-02-05T15:22:57.788Z,96290.16
2023-02-05T15:25:43.699Z,96289.13
2023-02-05T15:28:19.891Z,96300.41
2023-02-05T15:30:55.153Z,96302.41
2023-02-05T15:33:30.338Z,96303.63
2023-02-05T15:35:59.238Z,96308.31
2023-02-05T15:38:32.624Z,96303.53
2023-02-05T15:41:01.350Z,96316.81
2023-02-05T15:43:29.050Z,96316.81
2023-02-05T15:46:02.865Z,96315.44
2023-02-05T15:48:32.228Z,96317.78
2023-02-05T15:51:03.343Z,96314.94
2023-02-05T15:53:38.275Z,96309.88
2023-02-05T15:56:09.705Z,96313.75
2023-02-05T15:58:37.801Z,96306.69
2023-02-05T16:01:07.665Z,96300.47
2023-02-05T16:03:38.892Z,96310.16
2023-02-05T16:06:07.738Z,96301.59
2023-02-05T16:08:35.569Z,96310.19
2023-02-05T16:11:05.359Z,96316.56
2023-02-05T16:13:32.999Z,96324.09
2023-02-05T16:16:02.749Z,96320.75
2023-02-05T16:18:38.365Z,96323.91
2023-02-05T16:21:09.847Z,96326.59
2023-02-05T16:23:40.483Z,96327.41
2023-02-05T16:26:13.491Z,96323.59
2023-02-05T16:28:43.454Z,96330.09
2023-02-05T16:31:17.061Z,96328.75
2023-02-05T16:33:49.451Z,96326.72
2023-02-05T16:36:19.742Z,96323.22
2023-02-05T16:38:51.447Z,96323.06
2023-02-05T16:41:22.075Z,96322.03
2023-02-05T16:43:51.673Z,96329.94
2023-02-05T16:46:29.795Z,96322.72
2023-02-05T16:49:01.022Z,96322.72
2023-02-05T16:51:35.472Z,96323.75
2023-02-05T16:54:04.982Z,96321.84
2023-02-05T16:56:35.825Z,96328.22
2023-02-05T16:59:06.664Z,96337.13
2023-02-05T17:01:39.153Z,96328.22
2023-02-05T17:04:08.614Z,96331.91
2023-02-05T17:06:38.012Z,96336.28
2023-02-05T17:09:06.345Z,96340.09
2023-02-05T17:11:37.380Z,96340.25
2023-02-05T17:14:14.541Z,96338.41
2023-02-05T17:16:43.505Z,96342.13
2023-02-05T17:19:25.829Z,96330.69
2023-02-05T17:22:12.032Z,96340.00
2023-02-05T17:24:39.656Z,96326.03
2023-02-05T17:27:10.575Z,96333.00
2023-02-05T17:29:38.870Z,96333.06
2023-02-05T17:32:06.780Z,96326.72
2023-02-05T17:34:35.780Z,96322.72
2023-02-05T17:37:05.121Z,96338.50
2023-02-05T17:39:32.880Z,96329.44
2023-02-05T17:42:07.754Z,96324.06
2023-02-05T17:44:35.793Z,96324.56
2023-02-05T17:47:03.815Z,96331.13
2023-02-05T17:49:32.038Z,96325.47
2023-02-05T17:52:00.985Z,96336.19
2023-02-05T17:54:28.671Z,96335.22
2023-02-05T17:56:58.079Z,96337.19
2023-02-05T17:59:27.025Z,96335.97
2023-02-05T18:01:54.726Z,96329.22
2023-02-05T18:04:22.509Z,96337.13
2023-02-05T18:06:50.576Z,96323.69
2023-02-05T18:09:20.048Z,96327.56
2023-02-05T18:11:47.698Z,96318.28
2023-02-05T18:14:15.883Z,96323.09
2023-02-05T18:16:43.661Z,96325.63
2023-02-05T18:19:11.539Z,96336.06
2023-02-05T18:21:39.138Z,96336.91
2023-02-05T18:24:07.217Z,96325.63
2023-02-05T18:26:36.321Z,96335.53
2023-02-05T18:29:04.000Z,96335.38
2023-02-05T18:31:32.898Z,96337.06
2023-02-05T18:34:00.633Z,96337.91
2023-02-05T18:36:28.228Z,96344.56
2023-02-05T18:38:57.558Z,96333.31
2023-02-05T18:41:25.872Z,96327.78
2023-02-05T18:43:56.093Z,96321.28
2023-02-05T18:46:23.929Z,96314.91
2023-02-05T18:48:51.703Z,96314.59
2023-02-05T18:51:21.880Z,96312.59
2023-02-05T18:53:50.239Z,96316.81
2023-02-05T18:56:19.418Z,96320.72
2023-02-05T18:58:52.233Z,96326.59
2023-02-05T19:01:21.481Z,96324.47
2023-02-05T19:03:49.212Z,96331.50
2023-02-05T19:06:19.166Z,96333.88
2023-02-05T19:08:46.745Z,96332.75
2023-02-05T19:11:16.543Z,96342.31
2023-02-05T19:13:44.226Z,96352.38
2023-02-05T19:16:13.427Z,96351.34
2023-02-05T19:18:43.572Z,96354.22
2023-02-05T19:21:14.143Z,96353.19
2023-02-05T19:23:43.224Z,96359.91
2023-02-05T19:26:13.813Z,96374.59
2023-02-05T19:28:42.015Z,96366.09
2023-02-05T19:31:12.175Z,96371.63
2023-02-05T19:33:40.533Z,96372.38
2023-02-05T19:36:11.125Z,96368.19
2023-02-05T19:38:40.090Z,96360.66
2023-02-05T19:41:09.215Z,96361.03
2023-02-05T19:43:37.081Z,96365.72
2023-02-05T19:46:05.493Z,96361.66
2023-02-05T19:48:33.157Z,96369.69
2023-02-05T19:51:04.532Z,96354.31
2023-02-05T19:53:34.091Z,96359.53
2023-02-05T19:56:07.104Z,96352.31
2023-02-05T19:58:34.950Z,96344.03
2023-02-05T20:01:02.570Z,96351.94
2023-02-05T20:03:30.567Z,96355.06
2023-02-05T20:06:00.998Z,96356.63
2023-02-05T20:08:29.364Z,96355.91
2023-02-05T20:11:01.927Z,96354.09
2023-02-05T20:13:29.667Z,96352.91
2023-02-05T20:15:57.456Z,96361.50
2023-02-05T20:18:25.057Z,96366.72
2023-02-05T20:20:52.647Z,96370.72
2023-02-05T20:23:21.031Z,96375.72
2023-02-05T20:25:54.351Z,96387.72
2023-02-05T20:28:24.167Z,96387.03
2023-02-05T20:31:09.752Z,96386.44
2023-02-05T20:33:37.924Z,96393.03
2023-02-05T20:36:07.211Z,96389.81
2023-02-05T20:38:34.990Z,96394.72
2023-02-05T20:41:11.694Z,96396.72
2023-02-05T20:44:20.018Z,96392.72
2023-02-05T20:46:49.145Z,96394.94
2023-02-05T20:49:16.873Z,96406.22
2023-02-05T20:51:44.890Z,96406.22
2023-02-05T20:54:13.481Z,96408.75
2023-02-05T20:56:41.510Z,96416.78
2023-02-05T20:59:10.324Z,96418.09
2023-02-05T21:01:39.408Z,96428.28
2023-02-05T21:04:10.322Z,96417.56
2023-02-05T21:06:40.689Z,96429.16
2023-02-05T21:09:09.114Z,96439.31
2023-02-05T21:11:37.139Z,96444.00
2023-02-05T21:14:05.407Z,96445.63
2023-02-05T21:16:33.834Z,96455.44
2023-02-05T21:19:01.507Z,96454.72
2023-02-05T21:21:32.669Z,96462.94
2023-02-05T21:24:01.764Z,96473.75
2023-02-05T21:26:31.500Z,96474.03
2023-02-05T21:29:01.354Z,96479.75
2023-02-05T21:31:33.834Z,96484.28
2023-02-05T21:34:01.824Z,96490.22
2023-02-05T21:36:31.210Z,96491.38
2023-02-05T21:38:58.915Z,96499.25
2023-02-05T21:41:27.154Z,96498.00
2023-02-05T21:43:56.439Z,96497.53
2023-02-05T21:46:25.128Z,96503.88
2023-02-05T21:48:54.335Z,96498.38
2023-02-05T21:51:23.380Z,96511.50
2023-02-05T21:53:57.043Z,96509.66
2023-02-05T21:56:26.357Z,96514.47
2023-02-05T21:58:54.004Z,96514.47
2023-02-05T22:01:23.936Z,96519.53
2023-02-05T22:03:53.197Z,96511.50
2023-02-05T22:06:21.795Z,96521.22
2023-02-05T22:08:50.869Z,96517.56
2023-02-05T22:11:20.950Z,96524.63
2023-02-05T22:13:49.976Z,96516.56
2023-02-05T22:16:20.221Z,96520.09
2023-02-05T22:18:48.343Z,96522.22
2023-02-05T22:21:18.474Z,96516.47
2023-02-05T22:23:49.047Z,96526.31
2023-02-05T22:26:17.604Z,96531.69
2023-02-05T22:28:46.817Z,96531.88
2023-02-05T22:31:16.342Z,96534.56
2023-02-05T22:33:45.595Z,96532.69
2023-02-05T22:36:15.235Z,96540.75
2023-02-05T22:38:43.606Z,96546.25
2023-02-05T22:41:12.309Z,96546.94
2023-02-05T22:43:40.232Z,96547.97
2023-02-05T22:46:11.207Z,96546.94
2023-02-05T22:48:40.122Z,96548.50
2023-02-05T22:51:09.808Z,96550.31
2023-02-05T22:53:38.149Z,96547.63
2023-02-05T22:56:08.919Z,96549.34
2023-02-05T22:58:36.624Z,96553.00
2023-02-05T23:01:09.870Z,96558.50
2023-02-05T23:03:37.578Z,96555.44
2023-02-05T23:06:09.732Z,96554.59
2023-02-05T23:08:37.478Z,96550.22
2023-02-05T23:11:06.539Z,96543.03
2023-02-05T23:13:34.126Z,96551.38
2023-02-05T23:16:07.693Z,96553.22
2023-02-05T23:18:36.983Z,96557.56
2023-02-05T23:21:08.086Z,96554.19
2023-02-05T23:23:35.659Z,96548.53
2023-02-05T23:26:07.094Z,96555.91
2023-02-05T23:28:34.765Z,96552.81
2023-02-05T23:31:02.505Z,96548.44
2023-02-05T23:33:30.329Z,96545.59
2023-02-05T23:35:59.474Z,96554.78
2023-02-05T23:38:27.594Z,96563.72
2023-02-05T23:40:56.235Z,96569.47
2023-02-05T23:43:24.482Z,96572.16
2023-02-05T23:45:52.963Z,96570.59
2023-02-05T23:48:20.772Z,96583.16
2023-02-05T23:50:50.323Z,96597.53
2023-02-05T23:53:20.992Z,96597.59
2023-02-05T23:55:50.035Z,96592.81
2023-02-05T23:58:19.100Z,96595.63
